createdAt,value
2023-03-30T00:00:57.095Z,101868.97
2023-03-30T00:03:24.823Z,101867.00
2023-03-30T00:05:51.975Z,101863.34
2023-03-30T00:08:19.452Z,101871.50
2023-03-30T00:10:47.997Z,101877.03
2023-03-30T00:13:15.157Z,101873.34
2023-03-30T00:15:42.351Z,101865.28
2023-03-30T00:18:09.948Z,101864.56
2023-03-30T00:20:37.799Z,101862.72
2023-03-30T00:23:04.933Z,101863.59
2023-03-30T00:25:31.848Z,101857.47
2023-03-30T00:27:59.151Z,101864.75
2023-03-30T00:30:26.079Z,101861.34
2023-03-30T00:32:54.005Z,101857.69
2023-03-30T00:35:21.145Z,101851.69
2023-03-30T00:37:49.680Z,101842.66
2023-03-30T00:40:20.707Z,101838.38
2023-03-30T00:42:49.169Z,101828.03
2023-03-30T00:45:21.253Z,101831.53
2023-03-30T00:48:03.315Z,101823.47
2023-03-30T00:50:35.402Z,101823.03
2023-03-30T00:53:09.938Z,101822.06
2023-03-30T00:55:40.244Z,101820.94
2023-03-30T00:58:10.141Z,101822.66
2023-03-30T01:00:39.362Z,101818.16
2023-03-30T01:03:28.492Z,101819.06
2023-03-30T01:05:58.321Z,101799.44
2023-03-30T01:08:32.542Z,101800.31
2023-03-30T01:11:04.064Z,101790.41
2023-03-30T01:13:35.843Z,101798.28
2023-03-30T01:16:24.558Z,101792.91
2023-03-30T01:19:19.067Z,101791.22
2023-03-30T01:22:08.685Z,101792.19
2023-03-30T01:24:49.359Z,101785.28
2023-03-30T01:27:26.130Z,101786.25
2023-03-30T01:30:29.894Z,101781.84
2023-03-30T01:33:30.257Z,101775.88
2023-03-30T01:36:48.650Z,101769.88
2023-03-30T01:39:39.802Z,101766.69
2023-03-30T01:42:10.443Z,101768.38
2023-03-30T01:44:56.626Z,101757.88
2023-03-30T01:47:45.594Z,101755.28
2023-03-30T01:50:20.471Z,101764.44
2023-03-30T01:52:55.959Z,101742.69
2023-03-30T01:55:37.001Z,101737.41
2023-03-30T01:58:09.101Z,101728.75
2023-03-30T02:00:38.421Z,101722.09
2023-03-30T02:03:19.368Z,101725.75
2023-03-30T02:05:51.218Z,101715.16
2023-03-30T02:08:24.026Z,101721.50
2023-03-30T02:10:54.051Z,101708.16
2023-03-30T02:13:22.616Z,101708.16
2023-03-30T02:15:54.642Z,101702.06
2023-03-30T02:18:21.608Z,101701.31
2023-03-30T02:20:49.599Z,101702.28
2023-03-30T02:23:21.274Z,101709.38
2023-03-30T02:25:48.441Z,101696.41
2023-03-30T02:28:18.660Z,101701.06
2023-03-30T02:30:47.338Z,101705.56
2023-03-30T02:33:32.668Z,101708.44
2023-03-30T02:36:38.337Z,101707.84
2023-03-30T02:39:13.953Z,101708.28
2023-03-30T02:42:21.867Z,101700.19
2023-03-30T02:44:51.685Z,101700.19
2023-03-30T02:47:48.502Z,101693.09
2023-03-30T02:50:32.559Z,101691.38
2023-03-30T02:53:29.843Z,101693.09
2023-03-30T02:56:07.383Z,101689.66
2023-03-30T02:59:00.663Z,101690.75
2023-03-30T03:01:43.158Z,101693.34
2023-03-30T03:04:18.160Z,101686.47
2023-03-30T03:07:02.910Z,101684.78
2023-03-30T03:09:30.889Z,101692.69
2023-03-30T03:11:58.227Z,101698.91
2023-03-30T03:14:29.813Z,101695.50
2023-03-30T03:16:57.232Z,101692.81
2023-03-30T03:19:30.009Z,101700.00
2023-03-30T03:21:57.060Z,101704.97
2023-03-30T03:24:25.018Z,101701.31
2023-03-30T03:27:11.094Z,101697.00
2023-03-30T03:29:58.953Z,101706.06
2023-03-30T03:32:26.298Z,101700.00
2023-03-30T03:34:54.457Z,101700.00
2023-03-30T03:37:22.130Z,101700.22
2023-03-30T03:39:49.348Z,101698.50
2023-03-30T03:42:16.630Z,101695.09
2023-03-30T03:44:58.966Z,101695.31
2023-03-30T03:47:25.956Z,101683.72
2023-03-30T03:49:52.854Z,101683.09
2023-03-30T03:52:19.872Z,101674.75
2023-03-30T03:54:46.919Z,101681.84
2023-03-30T03:57:13.925Z,101680.97
2023-03-30T03:59:41.125Z,101677.19
2023-03-30T04:02:08.114Z,101665.75
2023-03-30T04:04:35.018Z,101671.31
2023-03-30T04:07:02.059Z,101674.00
2023-03-30T04:09:29.364Z,101676.81
2023-03-30T04:12:11.830Z,101677.63
2023-03-30T04:14:57.211Z,101676.66
2023-03-30T04:17:41.432Z,101679.34
2023-03-30T04:20:29.035Z,101679.34
2023-03-30T04:23:21.942Z,101680.44
2023-03-30T04:26:08.303Z,101669.06
2023-03-30T04:28:57.770Z,101667.47
2023-03-30T04:31:50.999Z,101663.94
2023-03-30T04:34:44.121Z,101687.19
2023-03-30T04:37:32.454Z,101687.34
2023-03-30T04:40:13.907Z,101678.53
2023-03-30T04:43:20.342Z,101682.84
2023-03-30T04:46:02.229Z,101690.44
2023-03-30T04:48:32.378Z,101682.50
2023-03-30T04:51:14.952Z,101686.91
2023-03-30T04:54:02.430Z,101689.69
2023-03-30T04:56:29.477Z,101690.44
2023-03-30T04:58:56.366Z,101688.72
2023-03-30T05:01:28.527Z,101685.09
2023-03-30T05:04:18.421Z,101687.97
2023-03-30T05:07:09.016Z,101697.84
2023-03-30T05:09:56.221Z,101684.56
2023-03-30T05:12:58.121Z,101678.66
2023-03-30T05:15:45.403Z,101677.69
2023-03-30T05:18:29.453Z,101669.00
2023-03-30T05:21:16.667Z,101670.31
2023-03-30T05:24:02.314Z,101673.72
2023-03-30T05:26:32.140Z,101673.72
2023-03-30T05:29:05.092Z,101669.22
2023-03-30T05:31:39.993Z,101680.19
2023-03-30T05:34:27.251Z,101691.53
2023-03-30T05:37:01.263Z,101686.16
2023-03-30T05:39:37.309Z,101682.53
2023-03-30T05:42:12.772Z,101673.28
2023-03-30T05:44:45.950Z,101675.66
2023-03-30T05:47:38.679Z,101670.72
2023-03-30T05:50:25.644Z,101676.47
2023-03-30T05:52:55.379Z,101680.31
2023-03-30T05:55:46.923Z,101674.50
2023-03-30T05:58:17.311Z,101681.38
2023-03-30T06:00:54.256Z,101673.75
2023-03-30T06:03:32.551Z,101670.19
2023-03-30T06:05:59.963Z,101676.53
2023-03-30T06:08:27.274Z,101675.13
2023-03-30T06:10:58.365Z,101676.53
2023-03-30T06:13:33.341Z,101681.56
2023-03-30T06:16:02.910Z,101687.13
2023-03-30T06:18:30.901Z,101691.00
2023-03-30T06:21:07.801Z,101685.66
2023-03-30T06:23:49.522Z,101689.28
2023-03-30T06:26:21.230Z,101688.56
2023-03-30T06:28:48.926Z,101691.22
2023-03-30T06:31:16.748Z,101681.06
2023-03-30T06:33:45.684Z,101687.03
2023-03-30T06:36:14.925Z,101695.28
2023-03-30T06:38:45.988Z,101690.69
2023-03-30T06:41:16.006Z,101700.09
2023-03-30T06:43:47.275Z,101697.56
2023-03-30T06:46:20.864Z,101712.03
2023-03-30T06:48:50.034Z,101710.44
2023-03-30T06:51:37.312Z,101706.16
2023-03-30T06:54:06.207Z,101707.53
2023-03-30T06:56:38.206Z,101701.97
2023-03-30T06:59:10.481Z,101697.53
2023-03-30T07:01:57.838Z,101706.16
2023-03-30T07:04:47.782Z,101710.66
2023-03-30T07:07:24.609Z,101715.53
2023-03-30T07:09:51.565Z,101721.31
2023-03-30T07:12:18.917Z,101720.47
2023-03-30T07:14:47.711Z,101729.41
2023-03-30T07:17:16.098Z,101731.47
2023-03-30T07:19:43.319Z,101725.81
2023-03-30T07:22:10.345Z,101723.13
2023-03-30T07:24:37.304Z,101725.69
2023-03-30T07:27:04.589Z,101715.53
2023-03-30T07:29:33.170Z,101716.38
2023-03-30T07:32:00.392Z,101708.44
2023-03-30T07:34:27.892Z,101705.03
2023-03-30T07:36:58.659Z,101714.47
2023-03-30T07:39:30.146Z,101713.31
2023-03-30T07:41:58.585Z,101708.78
2023-03-30T07:44:29.638Z,101711.50
2023-03-30T07:47:01.870Z,101717.31
2023-03-30T07:49:28.807Z,101709.69
2023-03-30T07:51:55.900Z,101719.19
2023-03-30T07:54:27.460Z,101725.53
2023-03-30T07:57:04.965Z,101721.13
2023-03-30T07:59:32.603Z,101718.19
2023-03-30T08:02:12.678Z,101706.97
2023-03-30T08:04:46.780Z,101711.22
2023-03-30T08:07:17.015Z,101719.91
2023-03-30T08:09:45.983Z,101729.13
2023-03-30T08:12:12.909Z,101731.28
2023-03-30T08:14:40.225Z,101723.88
2023-03-30T08:17:07.106Z,101726.72
2023-03-30T08:19:33.979Z,101729.78
2023-03-30T08:22:02.244Z,101724.31
2023-03-30T08:24:29.244Z,101729.94
2023-03-30T08:26:56.257Z,101741.06
2023-03-30T08:29:23.202Z,101739.16
2023-03-30T08:31:52.187Z,101733.50
2023-03-30T08:34:19.422Z,101731.69
2023-03-30T08:36:46.405Z,101729.78
2023-03-30T08:39:13.284Z,101726.25
2023-03-30T08:41:49.198Z,101738.13
2023-03-30T08:44:31.856Z,101743.09
2023-03-30T08:47:03.249Z,101747.72
2023-03-30T08:49:36.041Z,101747.22
2023-03-30T08:52:05.593Z,101757.44
2023-03-30T08:54:34.209Z,101750.47
2023-03-30T08:57:11.877Z,101754.38
2023-03-30T09:00:12.496Z,101747.28
2023-03-30T09:02:47.506Z,101751.69
2023-03-30T09:05:37.801Z,101753.63
2023-03-30T09:08:29.303Z,101744.50
2023-03-30T09:11:09.621Z,101752.97
2023-03-30T09:13:38.094Z,101753.38
2023-03-30T09:16:16.867Z,101766.50
2023-03-30T09:18:48.155Z,101768.44
2023-03-30T09:21:16.073Z,101766.53
2023-03-30T09:23:43.510Z,101767.38
2023-03-30T09:26:44.170Z,101775.38
2023-03-30T09:29:26.657Z,101785.75
2023-03-30T09:32:15.011Z,101789.41
2023-03-30T09:34:53.274Z,101786.53
2023-03-30T09:37:21.870Z,101781.03
2023-03-30T09:39:50.254Z,101778.91
2023-03-30T09:42:46.234Z,101769.38
2023-03-30T09:45:32.686Z,101775.06
2023-03-30T09:48:06.133Z,101772.50
2023-03-30T09:50:39.336Z,101761.00
2023-03-30T09:53:19.056Z,101766.16
2023-03-30T09:55:58.533Z,101776.31
2023-03-30T09:58:31.830Z,101775.19
2023-03-30T10:01:09.339Z,101771.47
2023-03-30T10:03:36.507Z,101782.66
2023-03-30T10:06:18.875Z,101791.16
2023-03-30T10:08:56.875Z,101785.66
2023-03-30T10:11:38.096Z,101784.09
2023-03-30T10:14:07.537Z,101780.28
2023-03-30T10:16:35.309Z,101791.84
2023-03-30T10:19:17.002Z,101778.13
2023-03-30T10:21:47.005Z,101776.88
2023-03-30T10:24:23.050Z,101769.06
2023-03-30T10:27:17.900Z,101750.97
2023-03-30T10:29:50.838Z,101751.59
2023-03-30T10:32:21.525Z,101756.03
2023-03-30T10:34:53.321Z,101752.97
2023-03-30T10:37:31.585Z,101756.81
2023-03-30T10:40:01.488Z,101758.22
2023-03-30T10:42:32.774Z,101753.66
2023-03-30T10:45:02.023Z,101773.22
2023-03-30T10:48:03.629Z,101777.41
2023-03-30T10:50:30.865Z,101778.34
2023-03-30T10:53:09.106Z,101786.53
2023-03-30T10:56:43.650Z,101801.84
2023-03-30T10:59:25.563Z,101795.81
2023-03-30T11:02:23.237Z,101796.47
2023-03-30T11:05:01.173Z,101804.47
2023-03-30T11:08:07.716Z,101794.00
2023-03-30T11:10:44.600Z,101776.69
2023-03-30T11:13:18.363Z,101778.91
2023-03-30T11:15:54.130Z,101783.75
2023-03-30T11:18:26.963Z,101806.69
2023-03-30T11:20:53.861Z,101787.50
2023-03-30T11:23:25.541Z,101799.53
2023-03-30T11:26:03.540Z,101779.91
2023-03-30T11:28:42.883Z,101771.41
2023-03-30T11:31:17.951Z,101780.53
2023-03-30T11:33:53.775Z,101791.41
2023-03-30T11:36:40.171Z,101803.34
2023-03-30T11:39:28.917Z,101786.94
2023-03-30T11:42:30.219Z,101790.06
2023-03-30T11:44:58.107Z,101778.03
2023-03-30T11:47:37.027Z,101778.53
2023-03-30T11:50:23.425Z,101772.63
2023-03-30T11:52:54.660Z,101787.56
2023-03-30T11:56:06.767Z,101766.00
2023-03-30T11:58:42.506Z,101750.75
2023-03-30T12:01:34.252Z,101755.44
2023-03-30T12:04:11.685Z,101754.88
2023-03-30T12:06:58.724Z,101752.72
2023-03-30T12:09:31.152Z,101753.44
2023-03-30T12:12:22.724Z,101746.97
2023-03-30T12:15:27.251Z,101741.31
2023-03-30T12:18:15.088Z,101750.75
2023-03-30T12:20:53.934Z,101737.69
2023-03-30T12:23:52.134Z,101745.75
2023-03-30T12:26:34.380Z,101741.75
2023-03-30T12:29:44.305Z,101759.28
2023-03-30T12:31:59.430Z,101755.16
2023-03-30T12:34:28.951Z,101765.84
2023-03-30T12:37:21.286Z,101758.84
2023-03-30T12:40:21.003Z,101757.66
2023-03-30T12:43:04.292Z,101759.06
2023-03-30T12:45:50.436Z,101765.28
2023-03-30T12:48:26.520Z,101754.47
2023-03-30T12:51:18.424Z,101763.22
2023-03-30T12:53:57.044Z,101761.75
2023-03-30T12:56:56.468Z,101763.41
2023-03-30T12:59:23.297Z,101775.31
2023-03-30T13:02:08.981Z,101765.16
2023-03-30T13:04:39.688Z,101758.47
2023-03-30T13:07:14.604Z,101762.63
2023-03-30T13:09:59.893Z,101772.88
2023-03-30T13:12:32.151Z,101779.19
2023-03-30T13:15:02.602Z,101774.31
2023-03-30T13:17:57.327Z,101786.63
2023-03-30T13:20:54.783Z,101780.66
2023-03-30T13:23:21.576Z,101778.59
2023-03-30T13:26:00.259Z,101780.88
2023-03-30T13:28:57.815Z,101772.19
2023-03-30T13:31:33.503Z,101762.81
2023-03-30T13:34:37.973Z,101755.56
2023-03-30T13:37:40.111Z,101763.06
2023-03-30T13:40:09.865Z,101757.69
2023-03-30T13:42:58.336Z,101750.03
2023-03-30T13:45:25.203Z,101759.63
2023-03-30T13:48:23.236Z,101762.22
2023-03-30T13:50:56.874Z,101747.38
2023-03-30T13:53:28.343Z,101744.81
2023-03-30T13:55:56.334Z,101751.72
2023-03-30T13:58:33.872Z,101741.81
2023-03-30T14:01:05.924Z,101750.72
2023-03-30T14:03:40.387Z,101739.97
2023-03-30T14:06:08.832Z,101729.50
2023-03-30T14:08:38.987Z,101728.16
2023-03-30T14:11:16.211Z,101737.94
2023-03-30T14:13:45.057Z,101726.78
2023-03-30T14:16:18.669Z,101717.44
2023-03-30T14:18:46.432Z,101726.00
2023-03-30T14:21:24.203Z,101727.69
2023-03-30T14:23:53.417Z,101722.44
2023-03-30T14:26:28.304Z,101710.06
2023-03-30T14:29:11.259Z,101704.13
2023-03-30T14:31:41.126Z,101714.25
2023-03-30T14:34:32.094Z,101717.50
2023-03-30T14:37:01.989Z,101721.63
2023-03-30T14:39:31.313Z,101731.19
2023-03-30T14:42:09.427Z,101734.31
2023-03-30T14:44:40.111Z,101729.84
2023-03-30T14:47:07.771Z,101722.31
2023-03-30T14:49:36.821Z,101729.47
2023-03-30T14:52:17.212Z,101733.75
2023-03-30T14:54:54.474Z,101721.78
2023-03-30T14:57:38.127Z,101716.31
2023-03-30T15:00:21.637Z,101709.19
2023-03-30T15:02:53.374Z,101717.31
2023-03-30T15:05:24.010Z,101718.59
2023-03-30T15:07:52.742Z,101711.97
2023-03-30T15:10:45.940Z,101704.91
2023-03-30T15:13:24.822Z,101696.88
2023-03-30T15:15:54.460Z,101699.34
2023-03-30T15:18:27.092Z,101695.13
2023-03-30T15:20:55.518Z,101708.88
2023-03-30T15:23:24.558Z,101707.47
2023-03-30T15:25:55.819Z,101699.25
2023-03-30T15:28:23.214Z,101703.78
2023-03-30T15:30:52.924Z,101696.97
2023-03-30T15:33:19.896Z,101689.75
2023-03-30T15:35:51.846Z,101690.91
2023-03-30T15:38:28.214Z,101690.63
2023-03-30T15:40:55.235Z,101690.97
2023-03-30T15:43:27.667Z,101689.25
2023-03-30T15:45:57.767Z,101692.88
2023-03-30T15:48:24.767Z,101687.16
2023-03-30T15:50:56.469Z,101677.88
2023-03-30T15:53:47.543Z,101671.00
2023-03-30T15:56:22.802Z,101662.56
2023-03-30T15:58:51.246Z,101666.81
2023-03-30T16:01:18.558Z,101664.25
2023-03-30T16:03:55.538Z,101659.22
2023-03-30T16:06:23.031Z,101677.03
2023-03-30T16:08:50.115Z,101673.06
2023-03-30T16:11:18.790Z,101679.28
2023-03-30T16:13:48.889Z,101683.41
2023-03-30T16:16:18.621Z,101686.16
2023-03-30T16:18:46.179Z,101695.94
2023-03-30T16:21:13.294Z,101697.53
2023-03-30T16:23:40.383Z,101711.38
2023-03-30T16:26:10.473Z,101705.75
2023-03-30T16:28:37.603Z,101694.16
2023-03-30T16:31:19.658Z,101679.09
2023-03-30T16:33:46.964Z,101683.00
2023-03-30T16:36:22.496Z,101682.72
2023-03-30T16:38:49.496Z,101662.41
2023-03-30T16:41:19.826Z,101680.06
2023-03-30T16:43:47.550Z,101666.81
2023-03-30T16:46:21.272Z,101663.91
2023-03-30T16:48:48.440Z,101665.41
2023-03-30T16:51:15.653Z,101656.47
2023-03-30T16:53:43.132Z,101654.91
2023-03-30T16:56:17.685Z,101644.16
2023-03-30T16:58:45.211Z,101642.91
2023-03-30T17:01:14.063Z,101657.81
2023-03-30T17:03:41.307Z,101658.06
2023-03-30T17:06:08.512Z,101660.41
2023-03-30T17:08:35.657Z,101660.38
2023-03-30T17:11:18.452Z,101664.44
2023-03-30T17:13:47.456Z,101661.38
2023-03-30T17:16:15.158Z,101663.59
2023-03-30T17:18:42.289Z,101677.00
2023-03-30T17:21:16.627Z,101678.38
2023-03-30T17:23:45.105Z,101682.78
2023-03-30T17:26:12.904Z,101675.91
2023-03-30T17:28:40.094Z,101669.81
2023-03-30T17:31:15.035Z,101679.59
2023-03-30T17:33:42.501Z,101676.88
2023-03-30T17:36:19.540Z,101675.66
2023-03-30T17:38:47.220Z,101675.19
2023-03-30T17:41:15.772Z,101683.75
2023-03-30T17:43:45.658Z,101685.31
2023-03-30T17:46:14.175Z,101679.84
2023-03-30T17:48:42.506Z,101669.47
2023-03-30T17:51:09.724Z,101661.03
2023-03-30T17:53:37.257Z,101659.53
2023-03-30T17:56:04.426Z,101655.38
2023-03-30T17:58:34.305Z,101651.25
2023-03-30T18:01:03.532Z,101655.97
2023-03-30T18:03:31.392Z,101650.94
2023-03-30T18:06:00.522Z,101650.97
2023-03-30T18:08:28.302Z,101656.06
2023-03-30T18:10:58.464Z,101665.19
2023-03-30T18:13:27.228Z,101656.03
2023-03-30T18:15:55.572Z,101654.56
2023-03-30T18:18:26.138Z,101652.13
2023-03-30T18:21:04.887Z,101651.13
2023-03-30T18:23:34.512Z,101649.66
2023-03-30T18:26:05.221Z,101648.94
2023-03-30T18:28:33.509Z,101653.84
2023-03-30T18:31:01.184Z,101643.22
2023-03-30T18:33:28.822Z,101638.69
2023-03-30T18:35:57.130Z,101626.13
2023-03-30T18:38:25.849Z,101628.91
2023-03-30T18:40:57.916Z,101623.06
2023-03-30T18:43:26.627Z,101627.69
2023-03-30T18:45:57.907Z,101625.41
2023-03-30T18:48:26.873Z,101625.56
2023-03-30T18:50:55.155Z,101635.84
2023-03-30T18:53:25.021Z,101637.06
2023-03-30T18:55:54.786Z,101641.69
2023-03-30T18:58:44.216Z,101651.72
2023-03-30T19:01:13.566Z,101655.75
2023-03-30T19:03:42.080Z,101656.63
2023-03-30T19:06:16.139Z,101648.94
2023-03-30T19:08:43.721Z,101652.69
2023-03-30T19:11:15.761Z,101658.69
2023-03-30T19:13:42.620Z,101660.41
2023-03-30T19:16:10.445Z,101667.25
2023-03-30T19:18:37.842Z,101671.53
2023-03-30T19:21:05.041Z,101671.16
2023-03-30T19:23:32.914Z,101681.81
2023-03-30T19:25:59.827Z,101676.44
2023-03-30T19:28:26.905Z,101675.31
2023-03-30T19:30:53.821Z,101677.13
2023-03-30T19:33:21.251Z,101680.69
2023-03-30T19:35:48.391Z,101679.94
2023-03-30T19:38:15.573Z,101685.22
2023-03-30T19:40:42.869Z,101686.94
2023-03-30T19:43:10.451Z,101690.31
2023-03-30T19:45:37.787Z,101683.25
2023-03-30T19:48:05.098Z,101677.75
2023-03-30T19:50:32.119Z,101675.91
2023-03-30T19:52:59.569Z,101677.63
2023-03-30T19:55:27.180Z,101669.44
2023-03-30T19:57:54.326Z,101668.59
2023-03-30T20:00:22.833Z,101666.88
2023-03-30T20:02:53.082Z,101676.66
2023-03-30T20:05:22.980Z,101667.63
2023-03-30T20:07:50.952Z,101657.22
2023-03-30T20:10:20.559Z,101660.75
2023-03-30T20:12:49.574Z,101645.59
2023-03-30T20:15:17.093Z,101638.50
2023-03-30T20:17:44.287Z,101638.41
2023-03-30T20:20:13.987Z,101641.91
2023-03-30T20:22:42.792Z,101643.88
2023-03-30T20:25:12.318Z,101650.97
2023-03-30T20:27:40.258Z,101647.66
2023-03-30T20:30:08.284Z,101645.13
2023-03-30T20:32:35.900Z,101644.97
2023-03-30T20:35:04.351Z,101646.69
2023-03-30T20:37:31.690Z,101647.56
2023-03-30T20:40:09.695Z,101645.59
2023-03-30T20:42:44.379Z,101656.59
2023-03-30T20:45:13.944Z,101645.84
2023-03-30T20:47:41.039Z,101648.41
2023-03-30T20:50:08.409Z,101650.13
2023-03-30T20:52:35.329Z,101646.31
2023-03-30T20:55:02.370Z,101646.56
2023-03-30T20:57:29.311Z,101637.53
2023-03-30T20:59:56.702Z,101643.88
2023-03-30T21:02:23.787Z,101641.91
2023-03-30T21:04:50.839Z,101628.72
2023-03-30T21:07:18.301Z,101630.69
2023-03-30T21:09:45.993Z,101631.41
2023-03-30T21:12:13.069Z,101630.56
2023-03-30T21:14:40.011Z,101627.75
2023-03-30T21:17:07.076Z,101621.63
2023-03-30T21:19:34.140Z,101618.22
2023-03-30T21:22:01.318Z,101618.06
2023-03-30T21:24:30.480Z,101612.84
2023-03-30T21:26:57.537Z,101606.50
2023-03-30T21:29:24.529Z,101607.31
2023-03-30T21:31:51.511Z,101601.94
2023-03-30T21:34:19.072Z,101595.72
2023-03-30T21:36:46.483Z,101595.72
2023-03-30T21:39:13.709Z,101592.56
2023-03-30T21:41:40.787Z,101592.69
2023-03-30T21:44:08.242Z,101586.56
2023-03-30T21:46:35.214Z,101586.44
2023-03-30T21:49:02.442Z,101580.31
2023-03-30T21:51:30.585Z,101577.78
2023-03-30T21:53:58.853Z,101572.63
2023-03-30T21:56:29.322Z,101575.47
2023-03-30T21:58:57.368Z,101577.66
2023-03-30T22:01:24.745Z,101574.00
2023-03-30T22:03:53.869Z,101557.13
2023-03-30T22:06:22.102Z,101557.25
2023-03-30T22:08:49.421Z,101556.38
2023-03-30T22:11:22.197Z,101539.66
2023-03-30T22:13:50.259Z,101532.72
2023-03-30T22:16:37.092Z,101522.19
2023-03-30T22:19:04.631Z,101529.28
2023-03-30T22:21:34.707Z,101537.34
2023-03-30T22:24:03.687Z,101548.22
2023-03-30T22:26:31.105Z,101534.78
2023-03-30T22:28:58.490Z,101542.72
2023-03-30T22:31:26.825Z,101541.75
2023-03-30T22:33:55.144Z,101538.19
2023-03-30T22:36:30.210Z,101539.06
2023-03-30T22:38:58.529Z,101527.09
2023-03-30T22:41:26.777Z,101523.53
2023-03-30T22:43:56.871Z,101521.69
2023-03-30T22:46:25.434Z,101535.78
2023-03-30T22:48:55.854Z,101538.19
2023-03-30T22:51:26.776Z,101526.00
2023-03-30T22:53:58.760Z,101516.69
2023-03-30T22:56:27.513Z,101519.28
2023-03-30T22:58:54.616Z,101506.81
2023-03-30T23:01:22.233Z,101498.75
2023-03-30T23:03:49.295Z,101492.88
2023-03-30T23:06:19.227Z,101497.03
2023-03-30T23:08:48.591Z,101494.34
2023-03-30T23:11:16.096Z,101495.19
2023-03-30T23:13:43.097Z,101492.88
2023-03-30T23:16:10.771Z,101489.22
2023-03-30T23:18:38.698Z,101478.47
2023-03-30T23:21:11.273Z,101481.16
2023-03-30T23:23:38.902Z,101466.97
2023-03-30T23:26:09.455Z,101477.72
2023-03-30T23:28:38.496Z,101474.19
2023-03-30T23:31:13.881Z,101471.38
2023-03-30T23:33:42.006Z,101461.72
2023-03-30T23:36:10.109Z,101458.06
2023-03-30T23:38:37.559Z,101453.53
2023-03-30T23:41:06.152Z,101439.13
2023-03-30T23:43:33.220Z,101432.88
2023-03-30T23:46:00.193Z,101424.94
2023-03-30T23:48:27.176Z,101426.53
2023-03-30T23:50:54.145Z,101433.47
2023-03-30T23:53:21.096Z,101431.78
2023-03-30T23:55:50.314Z,101429.81
2023-03-30T23:58:20.809Z,101427.25
